Huvudsida
METAR-TAF:

METAR-TAF

Flygplatser :

Gran Canarias flygplats

Gran Canaria, Spanien

latitud: 27-56N, longitud: 015-23W, höjd: 23 m

Aktuellt väderrapport

Denna rapport gjordes för 14 minuter sedan, klockan 08:00 UTC
Vind 16 kt från nord, varierande mellan väst/nordväst och nord
Temperatur 20°C
Fuktighet 56%
Tryck 1020 hPa
Sikt 10 km eller mer
Få moln på en höjd av 3500 ft

METAR: GCLP 270800Z 35016KT 300V010 9999 FEW035 20/11 Q1020 NOSIG

Tid: 09:14 (08:14 UTC)

Väderprognos

Denna rapport gjordes för 6 timmar och 14 minuter sedan, klockan 02:00 UTC
Prognos gäller från 27 kl. 03 UTC till 28 kl. 03 UTC
Vind 13 kt från nord
Sikt 10 km eller mer
Få moln på en höjd av 4500 ft

TAF: GCLP 270200Z 2703/2803 36013KT 9999 FEW045 TX24/2714Z TN18/2705Z

Aktuella väderrapporter och prognoser från 4000 flygplatser (METAR- och TAF-rapporter).

De tillgängliga stationerna syns som gula och röda prickar på kartan.

För musen över prickarna för att se namnen på stationerna.

Klicka sedan för att få väderrapporter och prognoser.

För att ändra kartan: Klicka på de gröna knapparna med ett svart kors på för att zooma in; den gröna knappen med ett streck på för att zooma ut; eller på de gröna pilarna för angränsande kartor.


METAR-TAF: